createdAt,value
2016-08-17T00:00:09.743Z,0
2016-08-17T00:01:09.755Z,0
2016-08-17T00:02:09.806Z,0
2016-08-17T00:03:09.766Z,0
2016-08-17T00:04:08.355Z,0
2016-08-17T00:05:09.828Z,0
2016-08-17T00:06:09.625Z,0
2016-08-17T00:07:09.089Z,0
2016-08-17T00:08:09.084Z,0
2016-08-17T00:09:09.093Z,0
2016-08-17T00:10:08.397Z,0
2016-08-17T00:11:09.110Z,0
2016-08-17T00:12:09.113Z,0
2016-08-17T00:13:08.113Z,0
2016-08-17T00:14:09.783Z,0
2016-08-17T00:15:08.428Z,0
2016-08-17T00:16:08.485Z,0
2016-08-17T00:17:09.413Z,0
2016-08-17T00:18:08.454Z,0
2016-08-17T00:19:09.173Z,0
2016-08-17T00:20:09.165Z,0
2016-08-17T00:21:09.168Z,0
2016-08-17T00:22:09.175Z,0
2016-08-17T00:23:08.478Z,0
2016-08-17T00:24:08.834Z,0
2016-08-17T00:25:09.904Z,0
2016-08-17T00:26:10.716Z,0
2016-08-17T00:27:09.915Z,0
2016-08-17T00:28:10.173Z,0
2016-08-17T00:29:09.226Z,0
2016-08-17T00:30:09.228Z,0
2016-08-17T00:31:09.233Z,0
2016-08-17T00:32:09.947Z,0
2016-08-17T00:33:08.591Z,0
2016-08-17T00:34:08.551Z,0
2016-08-17T00:35:09.259Z,0
2016-08-17T00:36:09.264Z,0
2016-08-17T00:37:09.282Z,0
2016-08-17T00:38:09.288Z,0
2016-08-17T00:39:09.455Z,0
2016-08-17T00:40:10.009Z,0
2016-08-17T00:41:08.597Z,0
2016-08-17T00:42:08.593Z,0
2016-08-17T00:43:08.605Z,0
2016-08-17T00:44:09.367Z,0
2016-08-17T00:45:09.327Z,0
2016-08-17T00:46:09.332Z,0
2016-08-17T00:47:09.334Z,0
2016-08-17T00:48:10.904Z,0
2016-08-17T00:49:08.638Z,0
2016-08-17T00:50:09.702Z,0
2016-08-17T00:51:10.079Z,0
2016-08-17T00:52:07.951Z,0
2016-08-17T00:53:09.371Z,0
2016-08-17T00:54:09.381Z,0
2016-08-17T00:55:09.380Z,0
2016-08-17T00:56:08.734Z,0
2016-08-17T00:57:08.230Z,0
2016-08-17T00:58:08.796Z,0
2016-08-17T00:59:08.713Z,0
2016-08-17T01:00:07.999Z,0
2016-08-17T01:01:08.003Z,0
2016-08-17T01:02:09.433Z,0
2016-08-17T01:03:10.140Z,0
2016-08-17T01:04:09.444Z,0
2016-08-17T01:05:08.032Z,0
2016-08-17T01:06:10.157Z,0
2016-08-17T01:07:09.454Z,0
2016-08-17T01:08:09.467Z,0
2016-08-17T01:09:10.176Z,0
2016-08-17T01:10:08.058Z,0
2016-08-17T01:11:08.789Z,0
2016-08-17T01:12:09.469Z,0
2016-08-17T01:13:10.039Z,0
2016-08-17T01:14:09.557Z,0
2016-08-17T01:15:08.100Z,0
2016-08-17T01:16:09.515Z,0
2016-08-17T01:17:09.518Z,0
2016-08-17T01:18:09.527Z,0
2016-08-17T01:19:08.823Z,0
2016-08-17T01:20:10.250Z,0
2016-08-17T01:21:10.652Z,0
2016-08-17T01:22:09.558Z,0
2016-08-17T01:23:09.453Z,0
2016-08-17T01:24:08.860Z,0
2016-08-17T01:25:09.573Z,0
2016-08-17T01:26:09.579Z,0
2016-08-17T01:27:09.583Z,0
2016-08-17T01:28:08.881Z,0
2016-08-17T01:29:09.597Z,0
2016-08-17T01:30:09.601Z,0
2016-08-17T01:31:09.609Z,0
2016-08-17T01:32:10.421Z,0
2016-08-17T01:33:09.165Z,0
2016-08-17T01:34:09.277Z,0
2016-08-17T01:35:08.270Z,0
2016-08-17T01:36:08.228Z,0
2016-08-17T01:37:09.647Z,0
2016-08-17T01:38:09.654Z,0
2016-08-17T01:39:08.964Z,0
2016-08-17T01:40:09.663Z,0
2016-08-17T01:41:08.964Z,0
2016-08-17T01:42:09.680Z,0
2016-08-17T01:43:10.484Z,0
2016-08-17T01:44:08.981Z,0
2016-08-17T01:45:10.009Z,0
2016-08-17T01:46:09.195Z,0
2016-08-17T01:47:09.704Z,0
2016-08-17T01:48:09.713Z,0
2016-08-17T01:49:09.721Z,0
2016-08-17T01:50:10.434Z,0
2016-08-17T01:51:09.023Z,0
2016-08-17T01:52:08.327Z,0
2016-08-17T01:53:10.451Z,0
2016-08-17T01:54:10.400Z,0
2016-08-17T01:55:09.049Z,0
2016-08-17T01:56:09.204Z,0
2016-08-17T01:57:09.764Z,0
2016-08-17T01:58:09.122Z,0
2016-08-17T01:59:08.384Z,0
2016-08-17T02:00:09.143Z,0
2016-08-17T02:01:09.088Z,0
2016-08-17T02:02:09.097Z,0
2016-08-17T02:03:10.451Z,0
2016-08-17T02:04:09.812Z,0
2016-08-17T02:05:10.944Z,0
2016-08-17T02:06:09.828Z,0
2016-08-17T02:07:10.544Z,0
2016-08-17T02:08:09.841Z,0
2016-08-17T02:09:09.843Z,0
2016-08-17T02:10:10.572Z,0
2016-08-17T02:11:10.565Z,0
2016-08-17T02:12:09.867Z,0
2016-08-17T02:13:09.869Z,0
2016-08-17T02:14:10.435Z,0
2016-08-17T02:15:09.884Z,0
2016-08-17T02:16:10.331Z,0
2016-08-17T02:17:09.953Z,0
2016-08-17T02:18:09.395Z,0
2016-08-17T02:19:09.250Z,0
2016-08-17T02:20:08.548Z,0
2016-08-17T02:21:08.502Z,0
2016-08-17T02:22:09.927Z,0
2016-08-17T02:23:09.930Z,0
2016-08-17T02:24:09.231Z,0
2016-08-17T02:25:08.531Z,0
2016-08-17T02:26:09.959Z,0
2016-08-17T02:27:10.929Z,0
2016-08-17T02:28:09.963Z,0
2016-08-17T02:29:10.369Z,0
2016-08-17T02:30:09.975Z,0
2016-08-17T02:31:10.690Z,0
2016-08-17T02:32:09.988Z,0
2016-08-17T02:33:10.708Z,0
2016-08-17T02:34:09.297Z,0
2016-08-17T02:35:08.597Z,0
2016-08-17T02:36:10.989Z,0
2016-08-17T02:37:10.023Z,0
2016-08-17T02:38:10.845Z,0
2016-08-17T02:39:10.084Z,0
2016-08-17T02:40:10.748Z,0
2016-08-17T02:41:10.046Z,0
2016-08-17T02:42:09.346Z,0
2016-08-17T02:43:09.354Z,0
2016-08-17T02:44:09.358Z,0
2016-08-17T02:45:09.365Z,0
2016-08-17T02:46:10.795Z,0
2016-08-17T02:47:11.068Z,0
2016-08-17T02:48:10.796Z,0
2016-08-17T02:49:10.945Z,0
2016-08-17T02:50:09.397Z,0
2016-08-17T02:51:10.107Z,0
2016-08-17T02:52:09.415Z,0
2016-08-17T02:53:10.118Z,0
2016-08-17T02:54:10.133Z,0
2016-08-17T02:55:09.435Z,0
2016-08-17T02:56:10.144Z,0
2016-08-17T02:57:10.192Z,0
2016-08-17T02:58:11.560Z,0
2016-08-17T02:59:10.161Z,0
2016-08-17T03:00:10.716Z,0
2016-08-17T03:01:10.063Z,0
2016-08-17T03:02:09.469Z,0
2016-08-17T03:03:09.473Z,0
2016-08-17T03:04:09.492Z,0
2016-08-17T03:05:08.798Z,0
2016-08-17T03:06:09.497Z,0
2016-08-17T03:07:10.211Z,0
2016-08-17T03:08:10.211Z,0
2016-08-17T03:09:10.831Z,0
2016-08-17T03:10:08.825Z,0
2016-08-17T03:11:11.194Z,0
2016-08-17T03:12:09.529Z,0
2016-08-17T03:13:10.249Z,0
2016-08-17T03:14:25.127Z,0
2016-08-17T03:15:10.259Z,0
2016-08-17T03:16:09.553Z,0
2016-08-17T03:17:10.974Z,0
2016-08-17T03:18:10.986Z,0
2016-08-17T03:19:10.281Z,0
2016-08-17T03:20:10.705Z,0
2016-08-17T03:21:11.002Z,0
2016-08-17T03:22:10.354Z,0
2016-08-17T03:23:10.358Z,0
2016-08-17T03:24:09.808Z,0
2016-08-17T03:25:10.355Z,0
2016-08-17T03:26:10.324Z,0
2016-08-17T03:27:10.338Z,0
2016-08-17T03:28:11.091Z,0
2016-08-17T03:29:10.353Z,0
2016-08-17T03:30:10.360Z,0
2016-08-17T03:31:11.748Z,0
2016-08-17T03:32:10.362Z,0
2016-08-17T03:33:11.479Z,0
2016-08-17T03:34:09.670Z,0
2016-08-17T03:35:09.676Z,0
2016-08-17T03:36:10.386Z,0
2016-08-17T03:37:10.393Z,0
2016-08-17T03:38:10.405Z,0
2016-08-17T03:39:10.460Z,0
2016-08-17T03:40:10.421Z,0
2016-08-17T03:41:09.724Z,0
2016-08-17T03:42:11.610Z,0
2016-08-17T03:43:09.883Z,0
2016-08-17T03:44:10.629Z,0
2016-08-17T03:45:09.031Z,0
2016-08-17T03:46:10.451Z,0
2016-08-17T03:47:09.040Z,0
2016-08-17T03:48:10.468Z,0
2016-08-17T03:49:10.464Z,0
2016-08-17T03:50:09.772Z,0
2016-08-17T03:51:10.481Z,0
2016-08-17T03:52:09.780Z,4
2016-08-17T03:53:10.870Z,4
2016-08-17T03:54:10.506Z,0
2016-08-17T03:55:11.312Z,4
2016-08-17T03:56:10.513Z,4
2016-08-17T03:57:10.110Z,0
2016-08-17T03:58:11.228Z,4
2016-08-17T03:59:09.111Z,4
2016-08-17T04:00:10.588Z,8
2016-08-17T04:01:10.608Z,4
2016-08-17T04:02:09.131Z,4
2016-08-17T04:03:09.850Z,8
2016-08-17T04:04:12.115Z,8
2016-08-17T04:05:10.572Z,12
2016-08-17T04:06:10.973Z,12
2016-08-17T04:07:10.581Z,16
2016-08-17T04:08:10.585Z,12
2016-08-17T04:09:10.588Z,16
2016-08-17T04:10:11.309Z,20
2016-08-17T04:11:11.313Z,24
2016-08-17T04:12:10.619Z,24
2016-08-17T04:13:10.617Z,28
2016-08-17T04:14:09.918Z,28
2016-08-17T04:15:12.083Z,36
2016-08-17T04:16:11.343Z,40
2016-08-17T04:17:10.330Z,44
2016-08-17T04:18:11.351Z,44
2016-08-17T04:19:10.651Z,48
2016-08-17T04:20:10.656Z,52
2016-08-17T04:21:10.665Z,60
2016-08-17T04:22:11.722Z,60
2016-08-17T04:23:10.679Z,68
2016-08-17T04:24:11.444Z,72
2016-08-17T04:25:09.278Z,80
2016-08-17T04:26:10.841Z,88
2016-08-17T04:27:10.704Z,92
2016-08-17T04:28:10.719Z,100
2016-08-17T04:29:10.007Z,108
2016-08-17T04:30:10.771Z,112
2016-08-17T04:31:10.727Z,120
2016-08-17T04:32:10.734Z,132
2016-08-17T04:33:10.029Z,140
2016-08-17T04:34:10.750Z,148
2016-08-17T04:35:10.800Z,160
2016-08-17T04:36:11.459Z,168
2016-08-17T04:37:10.809Z,176
2016-08-17T04:38:10.063Z,192
2016-08-17T04:39:10.571Z,200
2016-08-17T04:40:10.075Z,212
2016-08-17T04:41:12.283Z,224
2016-08-17T04:42:10.794Z,232
2016-08-17T04:43:10.853Z,248
2016-08-17T04:44:11.516Z,256
2016-08-17T04:45:10.105Z,268
2016-08-17T04:46:10.827Z,280
2016-08-17T04:47:10.831Z,296
2016-08-17T04:48:10.833Z,308
2016-08-17T04:49:10.842Z,320
2016-08-17T04:50:12.501Z,336
2016-08-17T04:51:10.850Z,344
2016-08-17T04:52:12.266Z,360
2016-08-17T04:53:10.870Z,372
2016-08-17T04:54:09.455Z,384
2016-08-17T04:55:10.877Z,396
2016-08-17T04:56:10.880Z,408
2016-08-17T04:57:10.890Z,424
2016-08-17T04:58:11.600Z,436
2016-08-17T04:59:11.452Z,448
2016-08-17T05:00:09.494Z,460
2016-08-17T05:01:10.357Z,476
2016-08-17T05:02:10.926Z,488
2016-08-17T05:03:12.892Z,500
2016-08-17T05:04:10.722Z,512
2016-08-17T05:05:11.642Z,528
2016-08-17T05:06:10.245Z,548
2016-08-17T05:07:10.973Z,592
2016-08-17T05:08:10.956Z,652
2016-08-17T05:09:11.670Z,804
2016-08-17T05:10:10.913Z,984
2016-08-17T05:11:10.984Z,888
2016-08-17T05:12:10.572Z,880
2016-08-17T05:13:11.697Z,1028
2016-08-17T05:14:12.316Z,1432
2016-08-17T05:15:11.000Z,1852
2016-08-17T05:16:11.713Z,1748
2016-08-17T05:17:11.768Z,1704
2016-08-17T05:18:10.328Z,2496
2016-08-17T05:19:11.026Z,3084
2016-08-17T05:20:11.742Z,3332
2016-08-17T05:21:12.351Z,3448
2016-08-17T05:22:10.340Z,3824
2016-08-17T05:23:11.411Z,4236
2016-08-17T05:24:10.355Z,4404
2016-08-17T05:25:11.123Z,4564
2016-08-17T05:26:11.083Z,4816
2016-08-17T05:27:11.798Z,5136
2016-08-17T05:28:09.701Z,5008
2016-08-17T05:29:09.700Z,4616
2016-08-17T05:30:10.407Z,4760
2016-08-17T05:31:10.417Z,4692
2016-08-17T05:32:12.032Z,4368
2016-08-17T05:33:10.431Z,2560
2016-08-17T05:34:11.150Z,1740
2016-08-17T05:35:10.459Z,2280
2016-08-17T05:36:09.855Z,2404
2016-08-17T05:37:10.468Z,2404
2016-08-17T05:38:09.772Z,2720
2016-08-17T05:39:11.956Z,2540
2016-08-17T05:40:11.909Z,1836
2016-08-17T05:41:10.701Z,1692
2016-08-17T05:42:11.268Z,2056
2016-08-17T05:43:10.615Z,1624
2016-08-17T05:44:11.939Z,2116
2016-08-17T05:45:10.938Z,2648
2016-08-17T05:46:11.258Z,2120
2016-08-17T05:47:12.632Z,1912
2016-08-17T05:48:11.261Z,1484
2016-08-17T05:49:10.564Z,1492
2016-08-17T05:50:09.870Z,2788
2016-08-17T05:51:11.990Z,5828
2016-08-17T05:52:11.290Z,6260
2016-08-17T05:53:09.889Z,4060
2016-08-17T05:54:12.262Z,1644
2016-08-17T05:55:10.607Z,1184
2016-08-17T05:56:11.322Z,1212
2016-08-17T05:57:11.330Z,1260
2016-08-17T05:58:10.632Z,1600
2016-08-17T05:59:10.887Z,1756
2016-08-17T06:00:09.942Z,1624
2016-08-17T06:01:12.067Z,1256
2016-08-17T06:02:10.662Z,1200
2016-08-17T06:03:10.665Z,1192
2016-08-17T06:04:12.087Z,1196
2016-08-17T06:05:11.632Z,1196
2016-08-17T06:06:11.402Z,1708
2016-08-17T06:07:11.415Z,1684
2016-08-17T06:08:10.705Z,1440
2016-08-17T06:09:10.710Z,1900
2016-08-17T06:10:10.715Z,2052
2016-08-17T06:11:10.730Z,1504
2016-08-17T06:12:11.440Z,1296
2016-08-17T06:13:12.158Z,1548
2016-08-17T06:14:10.744Z,1476
2016-08-17T06:15:10.765Z,1600
2016-08-17T06:16:11.663Z,1492
2016-08-17T06:17:11.524Z,1680
2016-08-17T06:18:11.272Z,3256
2016-08-17T06:19:11.484Z,2916
2016-08-17T06:20:13.072Z,1828
2016-08-17T06:21:11.505Z,1644
2016-08-17T06:22:12.214Z,1884
2016-08-17T06:23:11.511Z,2096
2016-08-17T06:24:11.535Z,4224
2016-08-17T06:25:10.829Z,10084
2016-08-17T06:26:12.246Z,11400
2016-08-17T06:27:12.548Z,13344
2016-08-17T06:28:10.854Z,16000
2016-08-17T06:29:11.558Z,16640
2016-08-17T06:30:11.566Z,16896
2016-08-17T06:31:13.154Z,16960
2016-08-17T06:32:11.580Z,18080
2016-08-17T06:33:11.593Z,18752
2016-08-17T06:34:10.898Z,18208
2016-08-17T06:35:11.611Z,17376
2016-08-17T06:36:10.914Z,17344
2016-08-17T06:37:10.210Z,17984
2016-08-17T06:38:12.385Z,17824
2016-08-17T06:39:11.648Z,17184
2016-08-17T06:40:11.708Z,17216
2016-08-17T06:41:11.714Z,18208
2016-08-17T06:42:13.442Z,19520
2016-08-17T06:43:12.395Z,19872
2016-08-17T06:44:11.696Z,19456
2016-08-17T06:45:11.707Z,18720
2016-08-17T06:46:11.015Z,17920
2016-08-17T06:47:11.728Z,18240
2016-08-17T06:48:10.379Z,19360
2016-08-17T06:49:11.746Z,20320
2016-08-17T06:50:11.055Z,20672
2016-08-17T06:51:11.776Z,20704
2016-08-17T06:52:11.786Z,20896
2016-08-17T06:53:11.794Z,21408
2016-08-17T06:54:12.512Z,21600
2016-08-17T06:55:11.110Z,21824
2016-08-17T06:56:11.114Z,21696
2016-08-17T06:57:11.838Z,21664
2016-08-17T06:58:10.433Z,21728
2016-08-17T06:59:11.855Z,21312
2016-08-17T07:00:13.037Z,22368
2016-08-17T07:01:11.891Z,21792
2016-08-17T07:02:13.327Z,21952
2016-08-17T07:03:11.194Z,20320
2016-08-17T07:04:11.308Z,18528
2016-08-17T07:05:11.972Z,18304
2016-08-17T07:06:11.945Z,19200
2016-08-17T07:07:12.656Z,21760
2016-08-17T07:08:12.008Z,22592
2016-08-17T07:09:11.268Z,23712
2016-08-17T07:10:11.988Z,24384
2016-08-17T07:11:12.552Z,24672
2016-08-17T07:12:11.307Z,24448
2016-08-17T07:13:12.160Z,24512
2016-08-17T07:14:55.247Z,23968
2016-08-17T07:15:10.625Z,24128
2016-08-17T07:16:12.049Z,18880
2016-08-17T07:17:12.060Z,8076
2016-08-17T07:18:12.068Z,1736
2016-08-17T07:19:12.077Z,1420
2016-08-17T07:20:12.143Z,1220
2016-08-17T07:21:12.099Z,1164
2016-08-17T07:22:11.710Z,1148
2016-08-17T07:23:12.127Z,1128
2016-08-17T07:24:14.105Z,1116
2016-08-17T07:25:11.430Z,1120
2016-08-17T07:26:12.993Z,1100
2016-08-17T07:27:12.163Z,1092
2016-08-17T07:28:12.168Z,1088
2016-08-17T07:29:12.880Z,1100
2016-08-17T07:30:12.886Z,1084
2016-08-17T07:31:11.532Z,1072
2016-08-17T07:32:12.901Z,1072
2016-08-17T07:33:12.205Z,1076
2016-08-17T07:34:12.922Z,1076
2016-08-17T07:35:11.514Z,1064
2016-08-17T07:36:12.937Z,1056
2016-08-17T07:37:12.837Z,1048
2016-08-17T07:38:11.589Z,1052
2016-08-17T07:39:12.969Z,1056
2016-08-17T07:40:11.609Z,1064
2016-08-17T07:41:11.560Z,1072
2016-08-17T07:42:13.033Z,1072
2016-08-17T07:43:11.582Z,1064
2016-08-17T07:44:12.402Z,1052
2016-08-17T07:45:12.303Z,1036
2016-08-17T07:46:13.409Z,1036
2016-08-17T07:47:12.324Z,1040
2016-08-17T07:48:13.021Z,1036
2016-08-17T07:49:13.092Z,1036
2016-08-17T07:50:11.631Z,1036
2016-08-17T07:51:10.937Z,1044
2016-08-17T07:52:11.654Z,1044
2016-08-17T07:53:12.359Z,1048
2016-08-17T07:54:13.079Z,1044
2016-08-17T07:55:13.086Z,1040
2016-08-17T07:56:11.736Z,1040
2016-08-17T07:57:14.096Z,1036
2016-08-17T07:58:10.984Z,1204
2016-08-17T07:59:11.699Z,1204
2016-08-17T08:00:13.124Z,1208
2016-08-17T08:01:12.469Z,1208
2016-08-17T08:02:11.024Z,1204
2016-08-17T08:03:12.484Z,1200
2016-08-17T08:04:13.137Z,1188
2016-08-17T08:05:12.435Z,1172
2016-08-17T08:06:11.743Z,1172
2016-08-17T08:07:12.448Z,1164
2016-08-17T08:08:14.193Z,1160
2016-08-17T08:09:12.439Z,1164
2016-08-17T08:10:13.252Z,1148
2016-08-17T08:11:12.450Z,1144
2016-08-17T08:12:12.451Z,1136
2016-08-17T08:13:12.453Z,1128
2016-08-17T08:14:11.746Z,1124
2016-08-17T08:15:12.459Z,1124
2016-08-17T08:16:12.461Z,1116
2016-08-17T08:17:13.466Z,1120
2016-08-17T08:18:12.463Z,1124
2016-08-17T08:19:14.032Z,1112
2016-08-17T08:20:12.469Z,1108
2016-08-17T08:21:13.837Z,1108
2016-08-17T08:22:12.471Z,1108
2016-08-17T08:23:11.770Z,1112
2016-08-17T08:24:13.233Z,1108
2016-08-17T08:25:11.782Z,1100
2016-08-17T08:26:11.776Z,1100
2016-08-17T08:27:12.585Z,1092
2016-08-17T08:28:12.589Z,1088
2016-08-17T08:29:13.219Z,1092
2016-08-17T08:30:13.198Z,1100
2016-08-17T08:31:11.783Z,1100
2016-08-17T08:32:11.841Z,1096
2016-08-17T08:33:12.542Z,1092
2016-08-17T08:34:12.495Z,1100
2016-08-17T08:35:12.492Z,1100
2016-08-17T08:36:12.503Z,1096
2016-08-17T08:37:13.211Z,1100
2016-08-17T08:38:13.261Z,1104
2016-08-17T08:39:12.196Z,1104
2016-08-17T08:40:11.797Z,1104
2016-08-17T08:41:12.618Z,1108
2016-08-17T08:42:11.802Z,1112
2016-08-17T08:43:12.513Z,1124
2016-08-17T08:44:12.515Z,1140
2016-08-17T08:45:11.818Z,1168
2016-08-17T08:46:11.100Z,1184
2016-08-17T08:47:13.234Z,1216
2016-08-17T08:48:11.812Z,1260
2016-08-17T08:49:11.809Z,1324
2016-08-17T08:50:13.675Z,1416
2016-08-17T08:51:12.519Z,1532
2016-08-17T08:52:13.279Z,1664
2016-08-17T08:53:11.920Z,1764
2016-08-17T08:54:12.529Z,1836
2016-08-17T08:55:11.817Z,1916
2016-08-17T08:56:11.825Z,1968
2016-08-17T08:57:13.287Z,1996
2016-08-17T08:58:12.529Z,2000
2016-08-17T08:59:12.533Z,2032
2016-08-17T09:00:13.241Z,2052
2016-08-17T09:01:13.064Z,2056
2016-08-17T09:02:12.585Z,2064
2016-08-17T09:03:12.872Z,2072
2016-08-17T09:04:13.305Z,2084
2016-08-17T09:05:11.729Z,2084
2016-08-17T09:06:12.621Z,2084
2016-08-17T09:07:12.543Z,2076
2016-08-17T09:08:11.847Z,2080
2016-08-17T09:09:11.130Z,2092
2016-08-17T09:10:12.550Z,2048
2016-08-17T09:11:12.605Z,2024
2016-08-17T09:12:12.565Z,2072
2016-08-17T09:13:12.555Z,2064
2016-08-17T09:14:13.612Z,2068
2016-08-17T09:15:11.851Z,2068
2016-08-17T09:16:11.959Z,2064
2016-08-17T09:17:13.265Z,2072
2016-08-17T09:18:12.564Z,2060
2016-08-17T09:19:12.570Z,2080
2016-08-17T09:20:12.568Z,2076
2016-08-17T09:21:13.284Z,2064
2016-08-17T09:22:11.875Z,2056
2016-08-17T09:23:14.157Z,2044
2016-08-17T09:24:12.578Z,2056
2016-08-17T09:25:11.872Z,2044
2016-08-17T09:26:12.592Z,2032
2016-08-17T09:27:12.633Z,2040
2016-08-17T09:28:11.981Z,2028
2016-08-17T09:29:11.926Z,2044
2016-08-17T09:30:12.588Z,2020
2016-08-17T09:31:12.588Z,2032
2016-08-17T09:32:13.320Z,2040
2016-08-17T09:33:11.904Z,2028
2016-08-17T09:34:12.863Z,2016
2016-08-17T09:35:11.896Z,2008
2016-08-17T09:36:13.567Z,1984
2016-08-17T09:37:13.303Z,2016
2016-08-17T09:38:13.003Z,2008
2016-08-17T09:39:12.659Z,2008
2016-08-17T09:40:12.663Z,2004
2016-08-17T09:41:11.905Z,2020
2016-08-17T09:42:11.909Z,2000
2016-08-17T09:43:11.209Z,1984
2016-08-17T09:44:11.264Z,1984
2016-08-17T09:45:14.320Z,1980
2016-08-17T09:46:11.920Z,1972
2016-08-17T09:47:14.141Z,1976
2016-08-17T09:48:13.348Z,1972
2016-08-17T09:49:13.442Z,1948
2016-08-17T09:50:11.937Z,1948
2016-08-17T09:51:12.645Z,1956
2016-08-17T09:52:13.360Z,1952
2016-08-17T09:53:11.950Z,1948
2016-08-17T09:54:11.991Z,1944
2016-08-17T09:55:13.363Z,1936
2016-08-17T09:56:13.630Z,1940
2016-08-17T09:57:12.653Z,1940
2016-08-17T09:58:13.508Z,1940
2016-08-17T09:59:13.422Z,1936
2016-08-17T10:00:13.072Z,1936
2016-08-17T10:01:12.669Z,1932
2016-08-17T10:02:11.250Z,1936
2016-08-17T10:03:11.306Z,1936
2016-08-17T10:04:12.723Z,1916
2016-08-17T10:05:12.679Z,1908
2016-08-17T10:06:12.682Z,1896
2016-08-17T10:07:11.269Z,1872
2016-08-17T10:08:13.545Z,1884
2016-08-17T10:09:13.667Z,1880
2016-08-17T10:10:13.446Z,1864
2016-08-17T10:11:12.435Z,1884
2016-08-17T10:12:12.754Z,1884
2016-08-17T10:13:13.404Z,1868
2016-08-17T10:14:11.997Z,1836
2016-08-17T10:15:13.415Z,1828
2016-08-17T10:16:12.709Z,1832
2016-08-17T10:17:13.428Z,1844
2016-08-17T10:18:11.299Z,1828
2016-08-17T10:19:12.011Z,1836
2016-08-17T10:20:13.550Z,1828
2016-08-17T10:21:12.019Z,1820
2016-08-17T10:22:12.519Z,1816
2016-08-17T10:23:12.030Z,1804
2016-08-17T10:24:12.025Z,1816
2016-08-17T10:25:12.735Z,1816
2016-08-17T10:26:11.324Z,1812
2016-08-17T10:27:13.457Z,1812
2016-08-17T10:28:12.793Z,1800
2016-08-17T10:29:12.737Z,1800
2016-08-17T10:30:13.455Z,1772
2016-08-17T10:31:12.757Z,1796
2016-08-17T10:32:12.800Z,1796
2016-08-17T10:33:11.341Z,1800
2016-08-17T10:34:12.063Z,1792
2016-08-17T10:35:12.048Z,1784
2016-08-17T10:36:12.109Z,1768
2016-08-17T10:37:13.476Z,1764
2016-08-17T10:38:12.061Z,1748
2016-08-17T10:39:12.768Z,1760
2016-08-17T10:40:12.062Z,1756
2016-08-17T10:41:11.366Z,1744
2016-08-17T10:42:14.813Z,1740
2016-08-17T10:43:12.076Z,1728
2016-08-17T10:44:13.674Z,1696
2016-08-17T10:45:11.374Z,1716
2016-08-17T10:46:13.503Z,1708
2016-08-17T10:47:11.380Z,1696
2016-08-17T10:48:12.094Z,1696
2016-08-17T10:49:12.092Z,1680
2016-08-17T10:50:12.813Z,1688
2016-08-17T10:51:13.173Z,1692
2016-08-17T10:52:12.099Z,1700
2016-08-17T10:53:12.101Z,1684
2016-08-17T10:54:12.815Z,1672
2016-08-17T10:55:13.806Z,1668
2016-08-17T10:56:12.115Z,1664
2016-08-17T10:57:12.832Z,1664
2016-08-17T10:58:12.124Z,1664
2016-08-17T10:59:13.538Z,1668
2016-08-17T11:00:13.545Z,1656
2016-08-17T11:01:12.130Z,1640
2016-08-17T11:02:13.740Z,1640
2016-08-17T11:03:12.845Z,1636
2016-08-17T11:04:12.688Z,1628
2016-08-17T11:05:12.149Z,1608
2016-08-17T11:06:12.911Z,1600
2016-08-17T11:07:13.567Z,1600
2016-08-17T11:08:13.565Z,1596
2016-08-17T11:09:12.148Z,1592
2016-08-17T11:10:12.209Z,1580
2016-08-17T11:11:12.872Z,1572
2016-08-17T11:12:12.162Z,1564
2016-08-17T11:13:14.026Z,1552
2016-08-17T11:14:11.462Z,1536
2016-08-17T11:15:14.471Z,1544
2016-08-17T11:16:12.886Z,1480
2016-08-17T11:17:13.647Z,1520
2016-08-17T11:18:13.605Z,1500
2016-08-17T11:19:12.202Z,1512
2016-08-17T11:20:12.910Z,1508
2016-08-17T11:21:12.914Z,1500
2016-08-17T11:22:12.967Z,1512
2016-08-17T11:23:12.926Z,1496
2016-08-17T11:24:13.533Z,1484
2016-08-17T11:25:12.985Z,1484
2016-08-17T11:26:14.700Z,1444
2016-08-17T11:27:12.997Z,1460
2016-08-17T11:28:13.051Z,1448
2016-08-17T11:29:12.956Z,1448
2016-08-17T11:30:13.665Z,1440
2016-08-17T11:31:12.264Z,1440
2016-08-17T11:32:13.032Z,1436
2016-08-17T11:33:12.273Z,1420
2016-08-17T11:34:13.749Z,1404
2016-08-17T11:35:12.287Z,1416
2016-08-17T11:36:13.003Z,1400
2016-08-17T11:37:12.295Z,1408
2016-08-17T11:38:13.104Z,1396
2016-08-17T11:39:13.406Z,1396
2016-08-17T11:40:13.026Z,1392
2016-08-17T11:41:13.728Z,1388
2016-08-17T11:42:13.025Z,1376
2016-08-17T11:43:12.420Z,1380
2016-08-17T11:44:27.912Z,1368
2016-08-17T11:45:13.040Z,1376
2016-08-17T11:46:12.935Z,1368
2016-08-17T11:47:13.761Z,1368
2016-08-17T11:48:13.917Z,1344
2016-08-17T11:49:11.648Z,1364
2016-08-17T11:50:13.682Z,1360
2016-08-17T11:51:12.370Z,1352
2016-08-17T11:52:13.078Z,1340
2016-08-17T11:53:12.378Z,1304
2016-08-17T11:54:13.090Z,1292
2016-08-17T11:55:13.096Z,1284
2016-08-17T11:56:12.403Z,1280
2016-08-17T11:57:12.402Z,1268
2016-08-17T11:58:12.405Z,1252
2016-08-17T11:59:14.226Z,1240
2016-08-17T12:00:13.123Z,1228
2016-08-17T12:01:12.428Z,1220
2016-08-17T12:02:13.186Z,1208
2016-08-17T12:03:12.498Z,1204
2016-08-17T12:04:11.730Z,1196
2016-08-17T12:05:13.914Z,1184
2016-08-17T12:06:12.451Z,1176
2016-08-17T12:07:13.930Z,1172
2016-08-17T12:08:12.563Z,1156
2016-08-17T12:09:12.469Z,1148
2016-08-17T12:10:12.485Z,1132
2016-08-17T12:11:12.479Z,1128
2016-08-17T12:12:14.187Z,1116
2016-08-17T12:13:13.253Z,1112
2016-08-17T12:14:13.212Z,1104
2016-08-17T12:15:13.213Z,1092
2016-08-17T12:16:12.503Z,1080
2016-08-17T12:17:12.577Z,1076
2016-08-17T12:18:12.574Z,1052
2016-08-17T12:19:13.524Z,1044
2016-08-17T12:20:13.231Z,1028
2016-08-17T12:21:12.600Z,1004
2016-08-17T12:22:13.951Z,996
2016-08-17T12:23:14.368Z,980
2016-08-17T12:24:13.250Z,976
2016-08-17T12:25:13.309Z,976
2016-08-17T12:26:13.262Z,968
2016-08-17T12:27:11.852Z,960
2016-08-17T12:28:12.567Z,948
2016-08-17T12:29:13.282Z,940
2016-08-17T12:30:14.080Z,932
2016-08-17T12:31:13.290Z,924
2016-08-17T12:32:13.339Z,916
2016-08-17T12:33:13.299Z,916
2016-08-17T12:34:12.620Z,900
2016-08-17T12:35:12.642Z,888
2016-08-17T12:36:14.081Z,884
2016-08-17T12:37:14.075Z,888
2016-08-17T12:38:13.362Z,876
2016-08-17T12:39:14.180Z,864
2016-08-17T12:40:13.385Z,856
2016-08-17T12:41:15.198Z,856
2016-08-17T12:42:13.387Z,852
2016-08-17T12:43:14.125Z,844
2016-08-17T12:44:13.348Z,836
2016-08-17T12:45:12.638Z,824
2016-08-17T12:46:13.502Z,812
2016-08-17T12:47:14.064Z,800
2016-08-17T12:48:13.368Z,788
2016-08-17T12:49:12.661Z,768
2016-08-17T12:50:13.365Z,756
2016-08-17T12:51:12.672Z,756
2016-08-17T12:52:14.931Z,740
2016-08-17T12:53:13.369Z,732
2016-08-17T12:54:13.949Z,728
2016-08-17T12:55:12.012Z,712
2016-08-17T12:56:13.384Z,704
2016-08-17T12:57:12.672Z,700
2016-08-17T12:58:13.389Z,712
2016-08-17T12:59:14.089Z,692
2016-08-17T13:00:12.023Z,676
2016-08-17T13:01:13.392Z,680
2016-08-17T13:02:13.396Z,672
2016-08-17T13:03:14.374Z,656
2016-08-17T13:04:12.892Z,652
2016-08-17T13:05:14.249Z,648
2016-08-17T13:06:14.112Z,676
2016-08-17T13:07:13.410Z,640
2016-08-17T13:08:13.417Z,636
2016-08-17T13:09:12.712Z,632
2016-08-17T13:10:11.996Z,636
2016-08-17T13:11:13.417Z,556
2016-08-17T13:12:12.776Z,572
2016-08-17T13:13:12.000Z,532
2016-08-17T13:14:15.014Z,596
2016-08-17T13:15:12.719Z,584
2016-08-17T13:16:14.782Z,580
2016-08-17T13:17:12.723Z,600
2016-08-17T13:18:12.777Z,512
2016-08-17T13:19:12.882Z,592
2016-08-17T13:20:13.446Z,588
2016-08-17T13:21:12.752Z,520
2016-08-17T13:22:14.172Z,564
2016-08-17T13:23:14.159Z,528
2016-08-17T13:24:13.457Z,524
2016-08-17T13:25:13.254Z,520
2016-08-17T13:26:12.759Z,560
2016-08-17T13:27:13.473Z,608
2016-08-17T13:28:12.758Z,608
2016-08-17T13:29:14.183Z,624
2016-08-17T13:30:14.183Z,616
2016-08-17T13:31:13.478Z,608
2016-08-17T13:32:13.481Z,592
2016-08-17T13:33:13.490Z,652
2016-08-17T13:34:14.197Z,656
2016-08-17T13:35:12.781Z,656
2016-08-17T13:36:14.193Z,656
2016-08-17T13:37:12.079Z,656
2016-08-17T13:38:12.795Z,516
2016-08-17T13:39:13.546Z,524
2016-08-17T13:40:13.507Z,564
2016-08-17T13:41:14.270Z,544
2016-08-17T13:42:14.616Z,516
2016-08-17T13:43:13.567Z,520
2016-08-17T13:44:12.810Z,516
2016-08-17T13:45:12.821Z,532
2016-08-17T13:46:13.532Z,524
2016-08-17T13:47:14.635Z,552